createdAt,value
2022-08-28T00:00:33.000Z,16.00
2022-08-28T00:03:01.438Z,15.90
2022-08-28T00:05:31.783Z,15.90
2022-08-28T00:08:00.151Z,15.90
2022-08-28T00:10:29.213Z,15.90
2022-08-28T00:12:58.308Z,15.80
2022-08-28T00:15:27.605Z,15.80
2022-08-28T00:17:55.369Z,15.80
2022-08-28T00:20:24.718Z,15.80
2022-08-28T00:22:52.932Z,15.70
2022-08-28T00:25:24.304Z,15.60
2022-08-28T00:27:55.292Z,15.60
2022-08-28T00:30:36.783Z,15.60
2022-08-28T00:33:14.507Z,15.60
2022-08-28T00:35:43.388Z,15.60
2022-08-28T00:38:12.849Z,15.50
2022-08-28T00:40:44.721Z,15.50
2022-08-28T00:43:40.330Z,15.50
2022-08-28T00:46:15.071Z,15.50
2022-08-28T00:48:43.104Z,15.50
2022-08-28T00:51:30.744Z,15.50
2022-08-28T00:54:00.660Z,15.40
2022-08-28T00:56:30.518Z,15.40
2022-08-28T00:59:03.663Z,15.40
2022-08-28T01:01:31.707Z,15.40
2022-08-28T01:03:59.552Z,15.40
2022-08-28T01:06:27.266Z,15.40
2022-08-28T01:08:54.823Z,15.40
2022-08-28T01:11:23.757Z,15.30
2022-08-28T01:13:54.500Z,15.30
2022-08-28T01:16:23.558Z,15.20
2022-08-28T01:19:00.774Z,15.20
2022-08-28T01:21:31.099Z,15.10
2022-08-28T01:24:02.170Z,15.00
2022-08-28T01:26:30.422Z,14.90
2022-08-28T01:28:59.408Z,14.90
2022-08-28T01:31:28.419Z,14.90
2022-08-28T01:33:56.669Z,14.90
2022-08-28T01:36:24.517Z,14.90
2022-08-28T01:39:01.127Z,14.90
2022-08-28T01:41:29.662Z,14.90
2022-08-28T01:43:57.763Z,14.90
2022-08-28T01:46:25.523Z,14.90
2022-08-28T01:48:53.124Z,15.00
2022-08-28T01:51:24.511Z,15.10
2022-08-28T01:53:52.687Z,15.20
2022-08-28T01:56:20.417Z,15.20
2022-08-28T01:58:50.844Z,15.20
2022-08-28T02:01:21.153Z,15.30
2022-08-28T02:03:49.306Z,15.30
2022-08-28T02:06:18.273Z,15.30
2022-08-28T02:08:46.757Z,15.30
2022-08-28T02:11:15.989Z,15.30
2022-08-28T02:13:44.878Z,15.20
2022-08-28T02:16:12.987Z,15.10
2022-08-28T02:18:41.319Z,15.00
2022-08-28T02:21:10.504Z,15.00
2022-08-28T02:23:40.954Z,14.90
2022-08-28T02:26:09.467Z,14.90
2022-08-28T02:28:38.016Z,14.80
2022-08-28T02:31:09.427Z,14.70
2022-08-28T02:33:46.442Z,14.60
2022-08-28T02:36:15.485Z,14.50
2022-08-28T02:38:44.303Z,14.50
2022-08-28T02:41:12.453Z,14.40
2022-08-28T02:43:40.725Z,14.40
2022-08-28T02:46:08.960Z,14.40
2022-08-28T02:48:38.724Z,14.30
2022-08-28T02:51:09.953Z,14.30
2022-08-28T02:53:39.211Z,14.20
2022-08-28T02:56:07.914Z,14.20
2022-08-28T02:58:36.438Z,14.10
2022-08-28T03:01:07.396Z,14.00
2022-08-28T03:03:35.548Z,14.00
2022-08-28T03:06:04.966Z,14.00
2022-08-28T03:08:33.247Z,13.90
2022-08-28T03:11:01.174Z,13.90
2022-08-28T03:13:30.209Z,13.90
2022-08-28T03:15:58.708Z,13.90
2022-08-28T03:18:30.342Z,13.90
2022-08-28T03:20:59.940Z,13.90
2022-08-28T03:23:27.940Z,13.80
2022-08-28T03:26:14.685Z,13.80
2022-08-28T03:28:45.388Z,13.80
2022-08-28T03:31:16.453Z,13.70
2022-08-28T03:33:45.143Z,13.70
2022-08-28T03:36:15.740Z,13.70
2022-08-28T03:38:43.784Z,13.60
2022-08-28T03:41:17.794Z,13.60
2022-08-28T03:43:45.942Z,13.60
2022-08-28T03:46:16.969Z,13.50
2022-08-28T03:48:45.473Z,13.50
2022-08-28T03:51:16.190Z,13.50
2022-08-28T03:53:45.943Z,13.40
2022-08-28T03:56:17.517Z,13.40
2022-08-28T03:58:45.396Z,13.40
2022-08-28T04:01:13.096Z,13.40
2022-08-28T04:03:41.133Z,13.40
2022-08-28T04:06:08.828Z,13.40
2022-08-28T04:08:37.625Z,13.30
2022-08-28T04:11:05.776Z,13.30
2022-08-28T04:13:33.570Z,13.30
2022-08-28T04:16:10.853Z,13.30
2022-08-28T04:18:40.812Z,13.30
2022-08-28T04:21:12.338Z,13.30
2022-08-28T04:23:45.132Z,13.30
2022-08-28T04:26:15.805Z,13.30
2022-08-28T04:28:44.030Z,13.30
2022-08-28T04:31:11.727Z,13.30
2022-08-28T04:33:40.498Z,13.30
2022-08-28T04:36:14.833Z,13.30
2022-08-28T04:38:44.050Z,13.30
2022-08-28T04:41:14.492Z,13.30
2022-08-28T04:43:43.666Z,13.30
2022-08-28T04:46:13.589Z,13.30
2022-08-28T04:48:42.125Z,13.30
2022-08-28T04:51:11.299Z,13.30
2022-08-28T04:53:39.717Z,13.30
2022-08-28T04:56:11.030Z,13.40
2022-08-28T04:58:40.249Z,13.30
2022-08-28T05:01:11.349Z,13.30
2022-08-28T05:03:40.078Z,13.30
2022-08-28T05:06:08.322Z,13.30
2022-08-28T05:08:36.191Z,13.30
2022-08-28T05:11:33.066Z,13.30
2022-08-28T05:14:05.717Z,13.30
2022-08-28T05:16:39.418Z,13.30
2022-08-28T05:19:07.112Z,13.40
2022-08-28T05:21:34.858Z,13.30
2022-08-28T05:24:04.731Z,13.40
2022-08-28T05:26:34.036Z,13.40
2022-08-28T05:29:03.287Z,13.40
2022-08-28T05:31:31.852Z,13.40
2022-08-28T05:34:00.962Z,13.40
2022-08-28T05:36:32.823Z,13.40
2022-08-28T05:39:03.217Z,13.40
2022-08-28T05:41:31.264Z,13.50
2022-08-28T05:44:03.010Z,13.50
2022-08-28T05:46:31.267Z,13.50
2022-08-28T05:49:00.607Z,13.60
2022-08-28T05:51:28.747Z,13.60
2022-08-28T05:53:57.889Z,13.70
2022-08-28T05:56:29.994Z,13.80
2022-08-28T05:59:00.181Z,13.90
2022-08-28T06:01:30.512Z,13.90
2022-08-28T06:03:59.841Z,13.90
2022-08-28T06:06:30.208Z,14.00
2022-08-28T06:09:00.114Z,14.10
2022-08-28T06:11:31.044Z,14.20
2022-08-28T06:14:02.466Z,14.30
2022-08-28T06:16:32.426Z,14.40
2022-08-28T06:19:00.794Z,14.40
2022-08-28T06:21:29.927Z,14.50
2022-08-28T06:23:57.448Z,14.60
2022-08-28T06:26:25.386Z,14.60
2022-08-28T06:28:53.703Z,14.70
2022-08-28T06:31:23.739Z,14.80
2022-08-28T06:33:54.463Z,14.90
2022-08-28T06:36:23.008Z,14.90
2022-08-28T06:38:51.340Z,15.00
2022-08-28T06:41:19.915Z,15.00
2022-08-28T06:43:47.996Z,15.10
2022-08-28T06:46:16.244Z,15.20
2022-08-28T06:48:44.039Z,15.20
2022-08-28T06:51:12.996Z,15.30
2022-08-28T06:53:41.539Z,15.30
2022-08-28T06:56:25.698Z,15.40
2022-08-28T06:58:56.904Z,15.40
2022-08-28T07:01:29.589Z,15.40
2022-08-28T07:04:01.025Z,15.40
2022-08-28T07:06:32.569Z,15.50
2022-08-28T07:09:00.723Z,15.60
2022-08-28T07:11:31.565Z,15.60
2022-08-28T07:14:00.038Z,15.60
2022-08-28T07:16:38.291Z,15.80
2022-08-28T07:19:07.875Z,15.80
2022-08-28T07:21:41.847Z,15.90
2022-08-28T07:24:11.528Z,15.90
2022-08-28T07:26:41.221Z,15.90
2022-08-28T07:29:10.835Z,15.90
2022-08-28T07:31:42.597Z,15.90
2022-08-28T07:34:12.755Z,15.90
2022-08-28T07:36:41.656Z,15.90
2022-08-28T07:39:11.251Z,15.90
2022-08-28T07:41:42.566Z,15.90
2022-08-28T07:44:31.230Z,15.90
2022-08-28T07:47:02.277Z,16.00
2022-08-28T07:49:31.519Z,16.00
2022-08-28T07:51:59.268Z,16.00
2022-08-28T07:54:27.283Z,16.10
2022-08-28T07:56:55.205Z,16.20
2022-08-28T07:59:22.983Z,16.20
2022-08-28T08:01:52.227Z,16.20
2022-08-28T08:04:21.300Z,16.30
2022-08-28T08:06:51.377Z,16.40
2022-08-28T08:09:22.329Z,16.40
2022-08-28T08:11:49.976Z,16.50
2022-08-28T08:14:18.809Z,16.60
2022-08-28T08:16:47.463Z,16.70
2022-08-28T08:19:16.614Z,16.80
2022-08-28T08:21:46.341Z,16.80
2022-08-28T08:24:20.647Z,16.90
2022-08-28T08:26:59.610Z,16.90
2022-08-28T08:29:30.216Z,16.90
2022-08-28T08:32:02.772Z,16.90
2022-08-28T08:34:30.953Z,16.90
2022-08-28T08:36:58.701Z,17.00
2022-08-28T08:39:26.543Z,17.00
2022-08-28T08:41:58.268Z,17.10
2022-08-28T08:44:38.811Z,17.20
2022-08-28T08:47:14.788Z,17.40
2022-08-28T08:49:58.794Z,17.40
2022-08-28T08:52:35.327Z,17.50
2022-08-28T08:55:26.085Z,17.50
2022-08-28T08:58:00.123Z,17.60
2022-08-28T09:00:31.541Z,17.80
2022-08-28T09:03:06.331Z,17.90
2022-08-28T09:05:56.989Z,17.90
2022-08-28T09:08:36.892Z,18.00
2022-08-28T09:11:22.928Z,18.10
2022-08-28T09:14:19.565Z,18.20
2022-08-28T09:16:48.577Z,18.30
2022-08-28T09:19:20.413Z,18.40
2022-08-28T09:21:51.501Z,18.60
2022-08-28T09:24:22.700Z,18.80
2022-08-28T09:26:53.916Z,19.00
2022-08-28T09:29:39.386Z,19.30
2022-08-28T09:32:25.415Z,19.40
2022-08-28T09:35:23.263Z,19.60
2022-08-28T09:37:51.553Z,19.90
2022-08-28T09:40:57.530Z,20.10
2022-08-28T09:43:28.539Z,20.40
2022-08-28T09:46:04.573Z,20.60
2022-08-28T09:48:35.868Z,20.70
2022-08-28T09:51:23.797Z,20.90
2022-08-28T09:53:57.348Z,21.00
2022-08-28T09:56:33.558Z,21.00
2022-08-28T09:59:07.540Z,21.00
2022-08-28T10:01:53.983Z,20.90
2022-08-28T10:04:33.916Z,20.90
2022-08-28T10:07:24.524Z,20.80
2022-08-28T10:10:30.451Z,20.70
2022-08-28T10:13:03.014Z,20.60
2022-08-28T10:16:09.776Z,20.60
2022-08-28T10:18:50.521Z,20.50
2022-08-28T10:21:31.722Z,20.50
2022-08-28T10:24:08.667Z,20.40
2022-08-28T10:27:21.390Z,20.40
2022-08-28T10:29:53.195Z,20.40
2022-08-28T10:32:20.798Z,20.40
2022-08-28T10:35:07.453Z,20.40
2022-08-28T10:38:11.749Z,20.50
2022-08-28T10:40:53.559Z,20.60
2022-08-28T10:43:39.555Z,20.80
2022-08-28T10:46:15.389Z,20.80
2022-08-28T10:48:46.816Z,20.70
2022-08-28T10:51:34.911Z,20.70
2022-08-28T10:54:05.198Z,20.70
2022-08-28T10:56:45.416Z,20.80
2022-08-28T10:59:20.566Z,20.90
2022-08-28T11:01:48.593Z,21.00
2022-08-28T11:04:25.099Z,21.10
2022-08-28T11:06:57.436Z,21.10
2022-08-28T11:09:39.459Z,21.10
2022-08-28T11:12:16.430Z,21.20
2022-08-28T11:14:48.315Z,21.30
2022-08-28T11:17:22.297Z,21.40
2022-08-28T11:20:08.946Z,21.50
2022-08-28T11:22:51.662Z,21.60
2022-08-28T11:25:26.624Z,21.70
2022-08-28T11:28:27.610Z,21.80
2022-08-28T11:31:01.361Z,21.90
2022-08-28T11:33:48.970Z,21.90
2022-08-28T11:36:22.407Z,22.00
2022-08-28T11:38:55.794Z,22.10
2022-08-28T11:41:36.938Z,22.30
2022-08-28T11:44:13.284Z,22.40
2022-08-28T11:46:49.737Z,22.50
2022-08-28T11:49:26.672Z,22.60
2022-08-28T11:52:29.749Z,22.60
2022-08-28T11:55:07.504Z,22.50
2022-08-28T11:57:53.051Z,22.60
2022-08-28T12:00:31.575Z,22.70
2022-08-28T12:03:12.674Z,22.90
2022-08-28T12:05:46.914Z,23.00
2022-08-28T12:08:51.357Z,23.00
2022-08-28T12:11:40.939Z,23.10
2022-08-28T12:14:31.743Z,23.20
2022-08-28T12:16:59.313Z,23.30
2022-08-28T12:19:51.241Z,23.40
2022-08-28T12:22:39.895Z,23.40
2022-08-28T12:25:25.534Z,23.50
2022-08-28T12:27:53.852Z,23.80
2022-08-28T12:30:36.200Z,23.90
2022-08-28T12:33:20.780Z,24.20
2022-08-28T12:35:50.000Z,24.40
2022-08-28T12:38:22.442Z,24.40
2022-08-28T12:40:52.848Z,24.70
2022-08-28T12:43:35.883Z,24.90
2022-08-28T12:46:23.370Z,25.10
2022-08-28T12:48:59.703Z,25.30
2022-08-28T12:51:28.985Z,25.30
2022-08-28T12:53:59.325Z,25.40
2022-08-28T12:56:34.170Z,25.40
2022-08-28T12:59:42.136Z,25.50
2022-08-28T13:02:28.963Z,25.40
2022-08-28T13:05:05.669Z,25.30
2022-08-28T13:07:47.542Z,25.20
2022-08-28T13:10:47.395Z,25.10
2022-08-28T13:13:29.552Z,25.10
2022-08-28T13:16:04.730Z,25.30
2022-08-28T13:19:06.775Z,25.50
2022-08-28T13:21:52.118Z,25.80
2022-08-28T13:24:26.213Z,25.90
2022-08-28T13:27:21.564Z,25.70
2022-08-28T13:30:00.121Z,25.50
2022-08-28T13:32:32.762Z,25.40
2022-08-28T13:35:09.158Z,25.30
2022-08-28T13:37:43.842Z,25.20
2022-08-28T13:40:25.658Z,25.10
2022-08-28T13:43:07.155Z,25.10
2022-08-28T13:45:43.094Z,24.90
2022-08-28T13:48:13.958Z,24.90
2022-08-28T13:50:47.222Z,24.70
2022-08-28T13:53:16.754Z,24.60
2022-08-28T13:55:45.482Z,24.60
2022-08-28T13:58:14.085Z,24.50
2022-08-28T14:00:45.224Z,24.40
2022-08-28T14:03:31.406Z,24.30
2022-08-28T14:05:59.104Z,24.20
2022-08-28T14:08:26.770Z,24.20
2022-08-28T14:10:54.471Z,24.20
2022-08-28T14:13:23.545Z,24.20
2022-08-28T14:15:51.137Z,24.20
2022-08-28T14:18:18.714Z,24.20
2022-08-28T14:20:46.393Z,24.20
2022-08-28T14:23:14.198Z,24.20
2022-08-28T14:25:47.531Z,24.20
2022-08-28T14:28:16.514Z,24.10
2022-08-28T14:30:45.644Z,23.90
2022-08-28T14:33:16.779Z,23.80
2022-08-28T14:35:45.800Z,23.70
2022-08-28T14:38:14.335Z,23.60
2022-08-28T14:40:44.188Z,23.60
2022-08-28T14:43:13.680Z,23.60
2022-08-28T14:45:46.480Z,23.60
2022-08-28T14:48:14.955Z,23.60
2022-08-28T14:50:45.729Z,23.60
2022-08-28T14:53:14.123Z,23.60
2022-08-28T14:55:43.942Z,23.60
2022-08-28T14:58:12.693Z,23.60
2022-08-28T15:00:49.518Z,23.70
2022-08-28T15:03:19.339Z,23.90
2022-08-28T15:05:47.267Z,24.00
2022-08-28T15:08:16.893Z,24.10
2022-08-28T15:10:45.377Z,24.40
2022-08-28T15:13:13.300Z,25.10
2022-08-28T15:15:43.078Z,26.10
2022-08-28T15:18:11.358Z,27.10
2022-08-28T15:20:46.719Z,28.00
2022-08-28T15:23:15.501Z,28.90
2022-08-28T15:25:43.292Z,29.50
2022-08-28T15:28:12.638Z,30.00
2022-08-28T15:30:41.877Z,30.30
2022-08-28T15:33:09.479Z,30.30
2022-08-28T15:35:37.258Z,30.30
2022-08-28T15:38:05.663Z,30.00
2022-08-28T15:40:52.961Z,29.80
2022-08-28T15:43:21.504Z,29.60
2022-08-28T15:45:50.070Z,29.50
2022-08-28T15:48:17.922Z,29.40
2022-08-28T15:50:45.562Z,29.10
2022-08-28T15:53:13.337Z,28.90
2022-08-28T15:55:41.481Z,28.50
2022-08-28T15:58:13.832Z,28.10
2022-08-28T16:00:42.520Z,27.80
2022-08-28T16:03:10.488Z,27.50
2022-08-28T16:05:40.958Z,27.40
2022-08-28T16:08:10.469Z,27.30
2022-08-28T16:10:39.107Z,27.60
2022-08-28T16:13:07.053Z,27.90
2022-08-28T16:15:35.324Z,28.10
2022-08-28T16:18:03.307Z,28.30
2022-08-28T16:20:31.113Z,28.60
2022-08-28T16:22:59.087Z,28.90
2022-08-28T16:25:26.751Z,29.40
2022-08-28T16:27:55.017Z,29.70
2022-08-28T16:30:24.323Z,29.60
2022-08-28T16:32:54.181Z,29.40
2022-08-28T16:35:22.047Z,29.40
2022-08-28T16:37:50.080Z,29.30
2022-08-28T16:40:17.897Z,28.80
2022-08-28T16:42:51.356Z,28.20
2022-08-28T16:45:20.472Z,27.60
2022-08-28T16:47:49.286Z,26.90
2022-08-28T16:50:20.906Z,26.40
2022-08-28T16:52:49.770Z,26.00
2022-08-28T16:55:17.583Z,25.60
2022-08-28T16:57:46.112Z,25.30
2022-08-28T17:00:14.292Z,25.00
2022-08-28T17:02:43.415Z,24.80
2022-08-28T17:05:12.459Z,24.40
2022-08-28T17:07:40.180Z,24.20
2022-08-28T17:10:09.488Z,23.90
2022-08-28T17:12:37.247Z,23.70
2022-08-28T17:15:06.721Z,23.50
2022-08-28T17:17:34.802Z,23.30
2022-08-28T17:20:03.749Z,23.20
2022-08-28T17:22:32.187Z,23.00
2022-08-28T17:25:14.126Z,22.90
2022-08-28T17:27:42.177Z,22.80
2022-08-28T17:30:10.600Z,22.70
2022-08-28T17:32:40.737Z,22.60
2022-08-28T17:35:13.006Z,22.50
2022-08-28T17:37:41.364Z,22.40
2022-08-28T17:40:12.536Z,22.30
2022-08-28T17:42:40.638Z,22.30
2022-08-28T17:45:08.893Z,22.20
2022-08-28T17:47:36.554Z,22.10
2022-08-28T17:50:06.095Z,22.00
2022-08-28T17:52:34.276Z,22.00
2022-08-28T17:55:02.370Z,21.90
2022-08-28T17:57:30.703Z,21.90
2022-08-28T18:00:00.030Z,21.90
2022-08-28T18:02:28.510Z,21.80
2022-08-28T18:04:56.191Z,21.70
2022-08-28T18:07:23.830Z,21.70
2022-08-28T18:09:51.497Z,21.60
2022-08-28T18:12:19.804Z,21.60
2022-08-28T18:14:47.571Z,21.50
2022-08-28T18:17:16.285Z,21.50
2022-08-28T18:19:44.012Z,21.40
2022-08-28T18:22:13.568Z,21.30
2022-08-28T18:24:41.879Z,21.20
2022-08-28T18:27:09.577Z,21.10
2022-08-28T18:29:39.454Z,21.00
2022-08-28T18:32:07.905Z,20.90
2022-08-28T18:34:40.073Z,20.90
2022-08-28T18:37:08.214Z,20.80
2022-08-28T18:39:42.313Z,20.70
2022-08-28T18:42:12.649Z,20.60
2022-08-28T18:44:40.492Z,20.60
2022-08-28T18:47:09.398Z,20.40
2022-08-28T18:49:36.961Z,20.40
2022-08-28T18:52:04.852Z,20.30
2022-08-28T18:54:32.572Z,20.20
2022-08-28T18:57:04.214Z,20.10
2022-08-28T18:59:33.952Z,20.10
2022-08-28T19:02:02.010Z,20.00
2022-08-28T19:04:29.723Z,19.90
2022-08-28T19:06:57.295Z,19.90
2022-08-28T19:09:31.743Z,19.70
2022-08-28T19:12:00.713Z,19.70
2022-08-28T19:14:28.628Z,19.60
2022-08-28T19:16:57.603Z,19.50
2022-08-28T19:19:26.430Z,19.40
2022-08-28T19:21:55.117Z,19.40
2022-08-28T19:24:24.381Z,19.40
2022-08-28T19:26:52.010Z,19.30
2022-08-28T19:29:19.758Z,19.30
2022-08-28T19:31:47.498Z,19.20
2022-08-28T19:34:15.138Z,19.20
2022-08-28T19:36:42.827Z,19.10
2022-08-28T19:39:10.740Z,19.10
2022-08-28T19:41:38.820Z,19.00
2022-08-28T19:44:06.935Z,19.00
2022-08-28T19:46:36.698Z,18.90
2022-08-28T19:49:05.862Z,18.90
2022-08-28T19:51:35.736Z,18.90
2022-08-28T19:54:03.843Z,18.90
2022-08-28T19:56:33.428Z,18.80
2022-08-28T19:59:03.070Z,18.80
2022-08-28T20:01:33.708Z,18.70
2022-08-28T20:04:05.096Z,18.60
2022-08-28T20:06:36.843Z,18.70
2022-08-28T20:09:10.687Z,18.60
2022-08-28T20:11:42.330Z,18.60
2022-08-28T20:14:10.549Z,18.50
2022-08-28T20:16:43.860Z,18.60
2022-08-28T20:19:12.835Z,18.50
2022-08-28T20:21:41.262Z,18.60
2022-08-28T20:24:11.996Z,18.50
2022-08-28T20:26:39.818Z,18.50
2022-08-28T20:29:08.578Z,18.60
2022-08-28T20:31:41.023Z,18.60
2022-08-28T20:34:13.424Z,18.70
2022-08-28T20:36:43.669Z,18.60
2022-08-28T20:39:13.508Z,18.60
2022-08-28T20:41:42.975Z,18.60
2022-08-28T20:44:16.818Z,18.60
2022-08-28T20:46:51.205Z,18.70
2022-08-28T20:49:22.108Z,18.60
2022-08-28T20:51:55.060Z,18.60
2022-08-28T20:54:29.891Z,18.50
2022-08-28T20:57:00.131Z,18.50
2022-08-28T20:59:34.395Z,18.40
2022-08-28T21:02:17.275Z,18.40
2022-08-28T21:05:20.720Z,18.40
2022-08-28T21:07:54.420Z,18.30
2022-08-28T21:10:27.042Z,18.30
2022-08-28T21:12:55.214Z,18.20
2022-08-28T21:15:24.422Z,18.20
2022-08-28T21:17:54.260Z,18.20
2022-08-28T21:20:23.955Z,18.20
2022-08-28T21:22:59.751Z,18.30
2022-08-28T21:25:30.063Z,18.30
2022-08-28T21:27:57.801Z,18.40
2022-08-28T21:30:29.906Z,18.40
2022-08-28T21:32:58.020Z,18.40
2022-08-28T21:35:25.987Z,18.40
2022-08-28T21:37:53.664Z,18.50
2022-08-28T21:40:21.393Z,18.50
2022-08-28T21:42:49.140Z,18.60
2022-08-28T21:45:17.991Z,18.60
2022-08-28T21:47:45.514Z,18.60
2022-08-28T21:50:13.555Z,18.60
2022-08-28T21:52:41.573Z,18.60
2022-08-28T21:55:12.972Z,18.70
2022-08-28T21:57:41.010Z,18.60
2022-08-28T22:00:13.474Z,18.60
2022-08-28T22:02:41.204Z,18.60
2022-08-28T22:05:09.559Z,18.60
2022-08-28T22:07:37.360Z,18.60
2022-08-28T22:10:05.671Z,18.60
2022-08-28T22:12:33.520Z,18.60
2022-08-28T22:15:01.532Z,18.50
2022-08-28T22:17:29.688Z,18.40
2022-08-28T22:19:57.259Z,18.40
2022-08-28T22:22:43.545Z,18.40
2022-08-28T22:25:11.442Z,18.40
2022-08-28T22:27:39.275Z,18.40
2022-08-28T22:30:07.537Z,18.40
2022-08-28T22:32:35.202Z,18.40
2022-08-28T22:35:03.022Z,18.40
2022-08-28T22:37:30.611Z,18.30
2022-08-28T22:39:59.248Z,18.30
2022-08-28T22:42:27.058Z,18.30
2022-08-28T22:44:54.833Z,18.30
2022-08-28T22:47:22.486Z,18.20
2022-08-28T22:49:50.185Z,18.20
2022-08-28T22:52:17.804Z,18.10
2022-08-28T22:54:45.812Z,18.10
2022-08-28T22:57:14.493Z,18.10
2022-08-28T22:59:42.242Z,18.10
2022-08-28T23:02:10.067Z,18.10
2022-08-28T23:04:38.506Z,18.10
2022-08-28T23:07:06.916Z,18.00
2022-08-28T23:09:36.054Z,18.00
2022-08-28T23:12:07.920Z,17.90
2022-08-28T23:14:38.692Z,17.90
2022-08-28T23:17:06.580Z,17.90
2022-08-28T23:19:34.386Z,17.90
2022-08-28T23:22:02.079Z,17.90
2022-08-28T23:24:31.248Z,17.90
2022-08-28T23:27:13.988Z,17.90
2022-08-28T23:29:46.598Z,17.90
2022-08-28T23:32:21.072Z,17.80
2022-08-28T23:34:49.318Z,17.80
2022-08-28T23:37:17.542Z,17.80
2022-08-28T23:39:45.209Z,17.80
2022-08-28T23:42:14.294Z,17.80
2022-08-28T23:44:42.024Z,17.80
2022-08-28T23:47:10.306Z,17.80
2022-08-28T23:49:42.664Z,17.70
2022-08-28T23:52:10.896Z,17.70
2022-08-28T23:54:39.993Z,17.80
2022-08-28T23:57:08.678Z,17.70
2022-08-28T23:59:38.617Z,17.80
